createdAt,value
2019-04-21T00:00:27.599Z,76.83
2019-04-21T00:01:03.889Z,76.81
2019-04-21T00:01:38.778Z,76.84
2019-04-21T00:02:05.563Z,76.84
2019-04-21T00:02:39.721Z,76.96
2019-04-21T00:03:18.181Z,77.17
2019-04-21T00:03:50.243Z,77.37
2019-04-21T00:04:27.310Z,77.52
2019-04-21T00:04:57.939Z,77.67
2019-04-21T00:05:38.629Z,77.80
2019-04-21T00:06:18.402Z,77.84
2019-04-21T00:06:49.207Z,77.92
2019-04-21T00:07:20.333Z,78.04
2019-04-21T00:07:50.501Z,78.02
2019-04-21T00:08:33.637Z,77.96
2019-04-21T00:09:02.723Z,77.80
2019-04-21T00:09:33.718Z,77.69
2019-04-21T00:10:06.278Z,77.73
2019-04-21T00:10:44.030Z,77.78
2019-04-21T00:11:41.053Z,77.88
2019-04-21T00:12:48.948Z,78.07
2019-04-21T00:13:21.118Z,78.15
2019-04-21T00:13:47.006Z,78.17
2019-04-21T00:14:22.555Z,78.30
2019-04-21T00:14:49.748Z,78.42
2019-04-21T00:15:27.075Z,78.48
2019-04-21T00:15:53.820Z,78.45
2019-04-21T00:16:32.140Z,78.57
2019-04-21T00:17:02.771Z,78.81
2019-04-21T00:17:27.065Z,79.04
2019-04-21T00:18:02.420Z,78.89
2019-04-21T00:18:41.825Z,78.71
2019-04-21T00:19:11.880Z,78.57
2019-04-21T00:19:39.533Z,78.51
2019-04-21T00:20:20.469Z,78.43
2019-04-21T00:20:49.796Z,78.28
2019-04-21T00:21:26.566Z,78.11
2019-04-21T00:21:58.123Z,78.06
2019-04-21T00:22:34.493Z,78.06
2019-04-21T00:23:15.293Z,78.05
2019-04-21T00:23:41.166Z,77.97
2019-04-21T00:24:17.723Z,77.98
2019-04-21T00:24:52.137Z,78.04
2019-04-21T00:25:25.333Z,78.00
2019-04-21T00:25:54.207Z,78.01
2019-04-21T00:26:33.529Z,78.10
2019-04-21T00:27:03.902Z,78.09
2019-04-21T00:27:36.887Z,78.11
2019-04-21T00:28:20.144Z,78.12
2019-04-21T00:28:54.032Z,78.16
2019-04-21T00:29:21.287Z,78.14
2019-04-21T00:29:47.610Z,78.11
2019-04-21T00:30:27.498Z,78.06
2019-04-21T00:30:59.279Z,78.01
2019-04-21T00:31:27.059Z,78.01
2019-04-21T00:32:00.653Z,77.99
2019-04-21T00:32:29.220Z,78.00
2019-04-21T00:32:56.342Z,78.02
2019-04-21T00:33:26.657Z,77.99
2019-04-21T00:33:55.144Z,78.01
2019-04-21T00:34:28.105Z,78.06
2019-04-21T00:35:07.697Z,78.06
2019-04-21T00:35:41.445Z,78.12
2019-04-21T00:36:13.171Z,78.19
2019-04-21T00:36:48.820Z,78.45
2019-04-21T00:37:20.770Z,78.57
2019-04-21T00:38:04.833Z,78.46
2019-04-21T00:38:56.088Z,78.37
2019-04-21T00:39:20.913Z,78.26
2019-04-21T00:40:16.616Z,78.42
2019-04-21T00:40:54.093Z,78.65
2019-04-21T00:41:26.031Z,78.62
2019-04-21T00:41:57.716Z,78.85
2019-04-21T00:42:29.176Z,78.86
2019-04-21T00:42:59.884Z,78.78
2019-04-21T00:43:27.977Z,78.65
2019-04-21T00:44:00.709Z,78.56
2019-04-21T00:44:29.467Z,78.63
2019-04-21T00:45:09.786Z,78.60
2019-04-21T00:45:39.215Z,78.47
2019-04-21T00:46:08.476Z,78.41
2019-04-21T00:46:47.719Z,78.29
2019-04-21T00:47:26.666Z,78.28
2019-04-21T00:48:00.425Z,78.31
2019-04-21T00:48:32.932Z,78.30
2019-04-21T00:49:01.994Z,78.22
2019-04-21T00:49:26.930Z,78.04
2019-04-21T00:50:25.643Z,77.94
2019-04-21T00:50:53.217Z,77.96
2019-04-21T00:51:58.385Z,78.45
2019-04-21T00:52:30.315Z,78.59
2019-04-21T00:53:00.434Z,78.56
2019-04-21T00:53:38.480Z,78.55
2019-04-21T00:54:03.967Z,78.57
2019-04-21T00:54:46.371Z,78.57
2019-04-21T00:55:14.271Z,78.55
2019-04-21T00:55:44.602Z,78.73
2019-04-21T00:56:16.247Z,78.71
2019-04-21T00:56:49.601Z,78.59
2019-04-21T00:57:26.045Z,78.58
2019-04-21T00:57:58.639Z,78.96
2019-04-21T00:58:28.665Z,79.74
2019-04-21T00:58:59.580Z,79.67
2019-04-21T00:59:38.331Z,79.73
2019-04-21T01:00:06.967Z,79.32
2019-04-21T01:00:35.007Z,78.99
2019-04-21T01:01:09.105Z,79.31
2019-04-21T01:01:46.028Z,79.53
2019-04-21T01:02:09.424Z,79.42
2019-04-21T01:02:51.123Z,79.11
2019-04-21T01:03:23.045Z,79.36
2019-04-21T01:03:57.897Z,79.47
2019-04-21T01:04:33.761Z,79.65
2019-04-21T01:05:08.757Z,79.26
2019-04-21T01:05:36.590Z,79.03
2019-04-21T01:06:03.676Z,78.63
2019-04-21T01:06:42.814Z,78.13
2019-04-21T01:07:13.827Z,77.84
2019-04-21T01:07:41.053Z,77.72
2019-04-21T01:08:17.671Z,77.48
2019-04-21T01:08:46.829Z,77.35
2019-04-21T01:09:19.763Z,77.31
2019-04-21T01:09:48.788Z,77.36
2019-04-21T01:10:21.117Z,77.30
2019-04-21T01:10:56.951Z,77.36
2019-04-21T01:11:31.832Z,77.30
2019-04-21T01:12:08.372Z,77.15
2019-04-21T01:12:41.793Z,77.44
2019-04-21T01:13:16.886Z,77.63
2019-04-21T01:13:56.788Z,78.05
2019-04-21T01:14:29.875Z,78.11
2019-04-21T01:14:58.151Z,78.13
2019-04-21T01:15:31.164Z,78.16
2019-04-21T01:15:59.774Z,78.14
2019-04-21T01:16:33.224Z,78.16
2019-04-21T01:17:06.777Z,78.05
2019-04-21T01:17:35.673Z,77.96
2019-04-21T01:18:14.861Z,78.04
2019-04-21T01:18:42.729Z,78.18
2019-04-21T01:19:12.107Z,78.28
2019-04-21T01:19:47.030Z,78.34
2019-04-21T01:20:12.903Z,78.31
2019-04-21T01:20:33.424Z,78.32
2019-04-21T01:21:13.639Z,78.50
2019-04-21T01:21:37.588Z,78.61
2019-04-21T01:22:08.832Z,78.72
2019-04-21T01:22:40.080Z,78.79
2019-04-21T01:23:12.577Z,78.79
2019-04-21T01:23:44.557Z,78.86
2019-04-21T01:24:21.631Z,78.85
2019-04-21T01:24:57.866Z,78.97
2019-04-21T01:25:30.259Z,79.14
2019-04-21T01:26:10.634Z,79.27
2019-04-21T01:26:39.298Z,79.27
2019-04-21T01:27:11.137Z,79.27
2019-04-21T01:27:53.771Z,79.12
2019-04-21T01:28:27.028Z,79.06
2019-04-21T01:28:58.406Z,79.09
2019-04-21T01:29:39.132Z,79.08
2019-04-21T01:30:08.509Z,78.96
2019-04-21T01:30:40.992Z,78.88
2019-04-21T01:31:10.997Z,78.69
2019-04-21T01:31:42.227Z,78.67
2019-04-21T01:32:24.223Z,78.68
2019-04-21T01:32:55.792Z,78.58
2019-04-21T01:33:26.297Z,78.30
2019-04-21T01:34:01.257Z,78.21
2019-04-21T01:34:33.012Z,78.30
2019-04-21T01:35:02.630Z,78.47
2019-04-21T01:35:35.428Z,78.39
2019-04-21T01:36:03.750Z,78.19
2019-04-21T01:36:38.826Z,78.09
2019-04-21T01:37:10.895Z,78.16
2019-04-21T01:37:52.783Z,78.23
2019-04-21T01:38:24.505Z,78.31
2019-04-21T01:38:58.318Z,78.29
2019-04-21T01:39:30.807Z,78.04
2019-04-21T01:40:02.518Z,78.06
2019-04-21T01:40:34.861Z,77.94
2019-04-21T01:41:07.096Z,77.66
2019-04-21T01:41:42.836Z,77.50
2019-04-21T01:42:11.998Z,77.48
2019-04-21T01:42:45.493Z,77.57
2019-04-21T01:43:17.606Z,77.55
2019-04-21T01:43:51.549Z,77.47
2019-04-21T01:44:34.876Z,77.36
2019-04-21T01:44:59.467Z,77.38
2019-04-21T01:45:30.707Z,77.67
2019-04-21T01:46:03.933Z,77.52
2019-04-21T01:46:30.998Z,77.33
2019-04-21T01:47:02.823Z,77.22
2019-04-21T01:47:36.135Z,77.14
2019-04-21T01:48:10.935Z,77.13
2019-04-21T01:48:42.764Z,77.00
2019-04-21T01:49:13.052Z,76.85
2019-04-21T01:49:43.067Z,77.12
2019-04-21T01:50:22.209Z,77.15
2019-04-21T01:50:55.510Z,77.16
2019-04-21T01:51:29.594Z,76.77
2019-04-21T01:52:17.805Z,76.61
2019-04-21T01:52:44.161Z,76.53
2019-04-21T01:53:12.858Z,76.40
2019-04-21T01:53:42.452Z,76.34
2019-04-21T01:54:18.620Z,76.34
2019-04-21T01:54:53.405Z,76.41
2019-04-21T01:55:24.956Z,76.43
2019-04-21T01:55:54.301Z,76.29
2019-04-21T01:56:24.513Z,76.37
2019-04-21T01:56:58.510Z,76.52
2019-04-21T01:57:31.917Z,76.54
2019-04-21T01:58:02.093Z,76.50
2019-04-21T01:58:31.489Z,76.58
2019-04-21T01:59:02.721Z,76.69
2019-04-21T01:59:36.685Z,76.75
2019-04-21T02:00:12.273Z,76.74
2019-04-21T02:00:44.825Z,76.61
2019-04-21T02:01:26.129Z,76.58
2019-04-21T02:02:00.423Z,76.70
2019-04-21T02:02:32.193Z,76.72
2019-04-21T02:03:10.040Z,76.82
2019-04-21T02:04:11.727Z,76.56
2019-04-21T02:04:54.310Z,76.42
2019-04-21T02:05:17.453Z,76.55
2019-04-21T02:05:55.345Z,76.69
2019-04-21T02:06:21.386Z,76.69
2019-04-21T02:06:59.917Z,76.64
2019-04-21T02:07:27.521Z,76.65
2019-04-21T02:07:58.065Z,76.66
2019-04-21T02:08:34.615Z,76.75
2019-04-21T02:09:08.162Z,76.79
2019-04-21T02:09:38.065Z,76.94
2019-04-21T02:10:11.477Z,77.03
2019-04-21T02:10:46.277Z,77.00
2019-04-21T02:11:16.934Z,76.67
2019-04-21T02:11:55.110Z,76.61
2019-04-21T02:12:26.580Z,76.69
2019-04-21T02:12:56.754Z,76.59
2019-04-21T02:13:24.683Z,76.55
2019-04-21T02:14:41.246Z,77.17
2019-04-21T02:15:14.332Z,76.86
2019-04-21T02:15:42.329Z,76.73
2019-04-21T02:16:28.134Z,76.49
2019-04-21T02:16:47.781Z,76.63
2019-04-21T02:17:16.376Z,76.73
2019-04-21T02:17:57.487Z,76.60
2019-04-21T02:18:22.023Z,76.47
2019-04-21T02:18:54.497Z,76.46
2019-04-21T02:19:26.177Z,76.50
2019-04-21T02:19:57.799Z,76.56
2019-04-21T02:20:29.347Z,76.54
2019-04-21T02:20:58.018Z,76.55
2019-04-21T02:21:41.987Z,76.64
2019-04-21T02:22:21.569Z,76.67
2019-04-21T02:23:07.374Z,76.80
2019-04-21T02:23:58.726Z,76.91
2019-04-21T02:24:34.924Z,77.11
2019-04-21T02:25:02.842Z,77.21
2019-04-21T02:25:51.024Z,77.25
2019-04-21T02:26:09.824Z,77.29
2019-04-21T02:26:40.025Z,77.42
2019-04-21T02:27:17.704Z,77.45
2019-04-21T02:27:50.227Z,77.67
2019-04-21T02:28:31.803Z,77.80
2019-04-21T02:28:56.552Z,77.77
2019-04-21T02:29:28.567Z,77.52
2019-04-21T02:29:59.825Z,77.31
2019-04-21T02:30:49.245Z,77.27
2019-04-21T02:31:20.929Z,77.15
2019-04-21T02:31:45.199Z,77.11
2019-04-21T02:32:14.917Z,76.90
2019-04-21T02:34:02.660Z,76.75
2019-04-21T02:34:38.364Z,76.63
2019-04-21T02:36:22.715Z,76.54
2019-04-21T02:38:30.727Z,76.89
2019-04-21T02:40:05.123Z,77.27
2019-04-21T02:40:44.152Z,77.44
2019-04-21T02:41:05.815Z,77.43
2019-04-21T02:41:55.715Z,77.31
2019-04-21T02:42:07.880Z,77.05
2019-04-21T02:43:05.381Z,77.14
2019-04-21T02:44:00.691Z,77.00
2019-04-21T02:44:35.360Z,77.00
2019-04-21T02:45:00.385Z,77.60
2019-04-21T02:45:29.683Z,77.94
2019-04-21T02:46:12.570Z,77.98
2019-04-21T02:46:37.962Z,77.86
2019-04-21T02:47:07.137Z,77.46
2019-04-21T02:48:19.382Z,77.83
2019-04-21T02:48:56.417Z,77.53
2019-04-21T02:49:50.768Z,78.08
2019-04-21T02:50:31.725Z,78.08
2019-04-21T02:50:57.628Z,77.91
2019-04-21T02:51:42.147Z,78.30
2019-04-21T02:52:16.171Z,77.24
2019-04-21T02:52:43.671Z,77.04
2019-04-21T02:53:21.229Z,77.73
2019-04-21T02:54:31.486Z,77.80
2019-04-21T02:54:48.232Z,77.39
2019-04-21T02:54:54.008Z,76.92
2019-04-21T02:55:31.242Z,76.51
2019-04-21T02:56:01.092Z,76.68
2019-04-21T02:57:08.942Z,76.27
2019-04-21T02:57:41.477Z,76.67
2019-04-21T02:58:18.222Z,76.68
2019-04-21T02:58:59.482Z,76.65
2019-04-21T02:59:42.286Z,76.25
2019-04-21T03:00:30.291Z,76.52
2019-04-21T03:00:59.737Z,76.66
2019-04-21T03:01:38.213Z,76.53
2019-04-21T03:02:43.045Z,76.52
2019-04-21T03:05:50.745Z,77.05
2019-04-21T03:06:45.760Z,77.78
2019-04-21T03:07:09.306Z,77.62
2019-04-21T03:08:05.703Z,77.28
2019-04-21T03:08:42.791Z,77.28
2019-04-21T03:10:20.565Z,77.57
2019-04-21T03:10:53.253Z,77.69
2019-04-21T03:11:17.422Z,77.75
2019-04-21T03:12:05.249Z,77.87
2019-04-21T03:12:22.540Z,78.05
2019-04-21T03:13:08.131Z,78.25
2019-04-21T03:14:22.362Z,78.52
2019-04-21T03:14:48.118Z,78.60
2019-04-21T03:15:29.609Z,78.96
2019-04-21T03:15:47.216Z,79.20
2019-04-21T03:16:22.884Z,79.26
2019-04-21T03:16:47.182Z,79.19
2019-04-21T03:17:43.654Z,79.10
2019-04-21T03:18:07.566Z,79.19
2019-04-21T03:18:37.673Z,79.08
2019-04-21T03:19:05.019Z,79.02
2019-04-21T03:19:45.518Z,78.99
2019-04-21T03:20:15.078Z,78.96
2019-04-21T03:20:47.338Z,79.02
2019-04-21T03:21:52.509Z,79.10
2019-04-21T03:22:20.018Z,79.11
2019-04-21T03:23:00.186Z,79.15
2019-04-21T03:23:33.108Z,79.20
2019-04-21T03:24:01.206Z,79.18
2019-04-21T03:25:00.886Z,79.20
2019-04-21T03:25:51.971Z,79.24
2019-04-21T03:26:25.005Z,79.30
2019-04-21T03:27:01.385Z,79.41
2019-04-21T03:27:56.957Z,79.69
2019-04-21T03:28:24.196Z,79.96
2019-04-21T03:29:03.318Z,80.12
2019-04-21T03:29:34.898Z,80.16
2019-04-21T03:32:25.832Z,80.15
2019-04-21T03:33:06.017Z,80.12
2019-04-21T03:34:29.338Z,80.17
2019-04-21T03:34:51.450Z,79.91
2019-04-21T03:36:37.254Z,80.34
2019-04-21T03:37:02.745Z,80.23
2019-04-21T03:37:16.616Z,80.18
2019-04-21T03:38:18.896Z,80.00
2019-04-21T03:38:45.362Z,80.12
2019-04-21T03:39:35.073Z,80.29
2019-04-21T03:39:59.765Z,80.49
2019-04-21T03:40:26.708Z,80.24
2019-04-21T03:40:58.777Z,80.10
2019-04-21T03:41:39.971Z,80.16
2019-04-21T03:42:42.664Z,79.93
2019-04-21T03:43:12.722Z,79.83
2019-04-21T03:43:54.678Z,79.53
2019-04-21T03:45:34.847Z,79.17
2019-04-21T03:45:58.517Z,79.09
2019-04-21T03:47:08.366Z,78.92
2019-04-21T03:47:40.558Z,78.72
2019-04-21T03:48:14.811Z,78.14
2019-04-21T03:48:42.732Z,77.77
2019-04-21T03:49:23.036Z,77.53
2019-04-21T03:50:46.952Z,76.50
2019-04-21T03:51:25.820Z,76.49
2019-04-21T03:52:03.529Z,76.42
2019-04-21T03:53:39.984Z,76.04
2019-04-21T03:54:13.692Z,76.00
2019-04-21T03:54:54.114Z,76.05
2019-04-21T03:55:41.579Z,75.77
2019-04-21T03:55:58.709Z,75.72
2019-04-21T03:56:29.625Z,75.20
2019-04-21T03:57:08.854Z,74.46
2019-04-21T03:57:46.629Z,74.33
2019-04-21T03:58:15.207Z,73.85
2019-04-21T03:58:50.504Z,73.44
2019-04-21T03:59:45.526Z,73.29
2019-04-21T04:00:20.899Z,72.20
2019-04-21T04:01:17.963Z,71.07
2019-04-21T04:01:58.434Z,70.92
2019-04-21T04:02:45.123Z,70.67
2019-04-21T04:03:07.661Z,70.63
2019-04-21T04:04:34.196Z,70.50
2019-04-21T04:05:40.656Z,70.84
2019-04-21T04:06:01.960Z,70.93
2019-04-21T04:07:06.086Z,70.88
2019-04-21T04:08:03.890Z,69.96
2019-04-21T04:08:44.010Z,69.55
2019-04-21T04:09:40.064Z,67.99
2019-04-21T04:10:08.205Z,67.34
2019-04-21T04:10:50.334Z,66.82
2019-04-21T04:11:53.033Z,65.53
2019-04-21T04:12:50.349Z,65.67
2019-04-21T04:13:27.633Z,64.75
2019-04-21T04:15:07.152Z,62.61
2019-04-21T04:16:10.297Z,62.97
2019-04-21T04:16:47.471Z,63.91
2019-04-21T04:17:49.926Z,60.88
2019-04-21T04:18:33.428Z,59.73
2019-04-21T04:19:07.755Z,59.99
2019-04-21T04:20:24.049Z,59.94
2019-04-21T04:20:39.920Z,57.81
2019-04-21T04:21:13.313Z,56.79
2019-04-21T04:22:14.643Z,56.13
2019-04-21T04:22:52.608Z,56.15
2019-04-21T04:23:41.568Z,55.84
2019-04-21T04:24:00.864Z,56.08
2019-04-21T04:25:07.350Z,56.04
2019-04-21T04:25:28.075Z,55.64
2019-04-21T04:26:07.390Z,55.37
2019-04-21T04:27:22.450Z,54.72
2019-04-21T04:28:38.482Z,54.05
2019-04-21T04:28:58.026Z,53.25
2019-04-21T04:29:19.565Z,52.80
2019-04-21T04:29:59.207Z,52.66
2019-04-21T04:30:32.008Z,52.79
2019-04-21T04:31:05.663Z,52.75
2019-04-21T04:32:53.747Z,51.37
2019-04-21T04:33:22.795Z,51.45
2019-04-21T04:33:58.072Z,51.01
2019-04-21T04:34:24.838Z,50.51
2019-04-21T04:34:56.916Z,49.83
2019-04-21T04:35:34.495Z,49.06
2019-04-21T04:36:01.528Z,48.50
2019-04-21T04:37:29.561Z,48.44
2019-04-21T04:37:38.884Z,48.30
2019-04-21T04:38:13.136Z,47.96
2019-04-21T04:38:51.391Z,47.35
2019-04-21T04:39:36.727Z,47.15
2019-04-21T04:39:48.747Z,46.81
2019-04-21T04:44:03.220Z,44.67
2019-04-21T04:45:10.257Z,44.65
2019-04-21T04:46:02.191Z,43.85
2019-04-21T04:47:00.006Z,43.75
2019-04-21T04:48:28.950Z,43.67
2019-04-21T04:50:19.718Z,43.53
2019-04-21T04:50:53.559Z,43.50
2019-04-21T04:52:21.005Z,44.85
2019-04-21T04:52:37.851Z,44.20
2019-04-21T04:53:47.404Z,43.54
2019-04-21T04:55:00.704Z,43.14
2019-04-21T04:55:40.999Z,42.47
2019-04-21T04:56:56.364Z,41.79
2019-04-21T04:57:45.174Z,41.39
2019-04-21T05:00:01.212Z,40.15
2019-04-21T05:00:34.483Z,39.83
2019-04-21T05:01:14.755Z,39.69
2019-04-21T05:02:48.956Z,39.45
2019-04-21T05:03:36.456Z,39.51
2019-04-21T05:05:51.059Z,39.93
2019-04-21T05:06:34.849Z,40.12
2019-04-21T05:07:09.727Z,41.16
2019-04-21T05:08:23.930Z,41.88
2019-04-21T05:08:43.838Z,41.77
2019-04-21T05:09:41.385Z,41.52
2019-04-21T05:22:31.470Z,42.91
2019-04-21T05:22:58.193Z,42.87
2019-04-21T05:23:35.147Z,42.47
2019-04-21T05:24:01.388Z,42.32
2019-04-21T05:25:15.634Z,41.77
2019-04-21T05:25:49.971Z,43.08
2019-04-21T05:26:18.509Z,42.71
2019-04-21T05:26:55.412Z,43.46
2019-04-21T05:27:24.935Z,44.23
2019-04-21T05:28:01.058Z,43.08
2019-04-21T05:28:32.725Z,44.46
2019-04-21T05:29:09.010Z,43.70
2019-04-21T05:30:36.901Z,43.18
2019-04-21T05:31:14.083Z,42.69
2019-04-21T05:31:46.322Z,43.21
2019-04-21T05:32:13.381Z,43.33
2019-04-21T05:33:27.609Z,42.82
2019-04-21T05:34:06.096Z,42.31
2019-04-21T05:34:30.513Z,42.09
2019-04-21T05:35:10.849Z,41.90
2019-04-21T05:35:40.560Z,42.02
2019-04-21T05:36:52.095Z,44.04
2019-04-21T05:37:30.500Z,42.80
2019-04-21T05:38:02.016Z,43.40
2019-04-21T05:38:34.722Z,42.28
2019-04-21T05:39:07.190Z,42.38
2019-04-21T05:39:37.516Z,42.32
2019-04-21T05:40:10.535Z,42.40
2019-04-21T05:40:38.844Z,42.44
2019-04-21T05:41:52.890Z,42.61
2019-04-21T05:42:28.881Z,42.95
2019-04-21T05:43:07.978Z,43.41
2019-04-21T05:43:45.453Z,43.67
2019-04-21T05:44:21.039Z,43.69
2019-04-21T05:45:24.177Z,43.87
2019-04-21T05:46:02.562Z,43.97
2019-04-21T05:46:35.673Z,43.85
2019-04-21T05:47:55.915Z,43.39
2019-04-21T05:48:51.894Z,43.33
2019-04-21T05:57:25.431Z,43.20
2019-04-21T05:58:03.951Z,43.29
2019-04-21T05:59:13.796Z,43.45
2019-04-21T05:59:49.150Z,44.39
2019-04-21T06:00:23.681Z,45.95
2019-04-21T06:01:35.866Z,45.25
2019-04-21T06:02:15.208Z,45.12
2019-04-21T06:02:40.036Z,45.25
2019-04-21T06:03:57.352Z,46.97
2019-04-21T06:05:58.044Z,45.33
2019-04-21T06:06:20.673Z,45.38
2019-04-21T06:06:56.810Z,45.58
2019-04-21T06:07:28.803Z,45.70
2019-04-21T06:08:02.777Z,45.76
2019-04-21T06:09:57.196Z,46.61
2019-04-21T06:10:27.334Z,47.47
2019-04-21T06:11:04.806Z,48.29
2019-04-21T06:11:30.577Z,47.40
2019-04-21T06:12:03.173Z,47.35
2019-04-21T06:15:26.578Z,48.00
2019-04-21T06:15:56.265Z,48.29
2019-04-21T06:16:36.425Z,47.28
2019-04-21T06:17:01.519Z,47.38
2019-04-21T06:18:58.669Z,46.02
2019-04-21T06:19:36.705Z,46.66
2019-04-21T06:20:35.347Z,46.50
2019-04-21T06:24:29.953Z,47.05
2019-04-21T06:26:25.432Z,45.44
2019-04-21T06:29:13.352Z,45.48
2019-04-21T06:29:44.008Z,45.34
2019-04-21T06:31:29.129Z,46.75
2019-04-21T06:32:09.380Z,46.37
2019-04-21T06:33:51.558Z,46.82
2019-04-21T06:34:24.877Z,47.51
2019-04-21T06:35:40.211Z,48.70
2019-04-21T06:36:23.987Z,48.25
2019-04-21T06:37:21.895Z,46.85
2019-04-21T06:38:23.453Z,47.64
2019-04-21T06:39:00.019Z,47.84
2019-04-21T06:39:25.590Z,48.87
2019-04-21T06:40:43.828Z,48.80
2019-04-21T06:42:40.117Z,47.89
2019-04-21T06:43:18.279Z,47.84
2019-04-21T06:43:51.129Z,47.98
2019-04-21T06:46:30.855Z,47.38
2019-04-21T06:47:03.309Z,47.30
2019-04-21T06:48:22.460Z,47.58
2019-04-21T06:48:53.692Z,48.00
2019-04-21T06:49:16.210Z,48.40
2019-04-21T06:49:50.562Z,47.50
2019-04-21T06:50:30.203Z,46.62
2019-04-21T06:50:59.437Z,46.34
2019-04-21T06:53:10.737Z,47.22
2019-04-21T06:53:40.834Z,47.28
2019-04-21T06:54:10.190Z,46.96
2019-04-21T06:54:44.381Z,45.83
2019-04-21T06:57:23.129Z,45.79
2019-04-21T06:57:55.890Z,45.38
2019-04-21T06:58:25.217Z,45.34
2019-04-21T06:59:01.537Z,45.07
2019-04-21T06:59:31.668Z,45.85
2019-04-21T07:01:26.550Z,46.31
2019-04-21T07:02:13.180Z,46.47
2019-04-21T07:03:43.930Z,46.37
2019-04-21T07:05:15.433Z,46.87
2019-04-21T07:05:52.458Z,46.76
2019-04-21T07:06:20.088Z,46.17
2019-04-21T07:07:33.291Z,46.88
2019-04-21T07:08:54.390Z,48.20
2019-04-21T07:09:57.234Z,47.21
2019-04-21T07:10:30.498Z,47.08
2019-04-21T07:11:05.394Z,47.15
2019-04-21T07:14:29.372Z,45.72
2019-04-21T07:14:59.513Z,45.19
2019-04-21T07:16:15.330Z,43.94
2019-04-21T07:16:44.718Z,43.85
2019-04-21T07:20:07.262Z,44.32
2019-04-21T07:23:17.484Z,44.45
2019-04-21T07:27:52.336Z,43.46
2019-04-21T07:28:28.512Z,44.26
2019-04-21T07:29:02.889Z,43.90
2019-04-21T07:29:34.445Z,44.77
2019-04-21T07:30:04.322Z,43.41
2019-04-21T07:31:17.868Z,42.14
2019-04-21T07:39:00.248Z,38.24
2019-04-21T07:39:32.568Z,38.80
2019-04-21T07:53:29.777Z,37.07
2019-04-21T07:54:44.435Z,37.04
2019-04-21T07:56:06.544Z,33.85
2019-04-21T07:56:34.992Z,31.99
2019-04-21T08:04:14.977Z,35.77
2019-04-21T08:05:20.000Z,36.99
2019-04-21T08:05:53.723Z,34.91
2019-04-21T08:06:26.847Z,35.33
2019-04-21T08:07:01.253Z,33.71
2019-04-21T08:07:41.527Z,34.88
2019-04-21T08:08:15.900Z,33.89
2019-04-21T08:08:34.245Z,32.99
2019-04-21T08:09:09.044Z,32.13
2019-04-21T08:09:40.989Z,32.63
2019-04-21T08:10:09.113Z,33.00
2019-04-21T08:10:44.297Z,31.28
2019-04-21T08:11:19.649Z,32.38
2019-04-21T08:11:50.033Z,31.68
2019-04-21T08:12:20.106Z,30.87
2019-04-21T08:12:54.221Z,30.59
2019-04-21T08:13:45.888Z,29.39
2019-04-21T08:14:11.623Z,29.85
2019-04-21T08:14:45.962Z,29.74
2019-04-21T08:15:18.245Z,32.17
2019-04-21T08:15:59.559Z,29.98
2019-04-21T08:16:18.697Z,28.98
2019-04-21T08:16:56.034Z,28.64
2019-04-21T08:17:28.475Z,30.61
2019-04-21T08:17:57.089Z,29.83
2019-04-21T08:18:33.518Z,28.18
2019-04-21T08:19:09.187Z,27.25
2019-04-21T08:19:35.421Z,27.54
2019-04-21T08:20:09.602Z,27.85
2019-04-21T08:20:38.736Z,28.39
2019-04-21T08:21:15.116Z,28.35
2019-04-21T08:21:54.102Z,27.97
2019-04-21T08:22:27.164Z,26.81
2019-04-21T08:22:58.919Z,27.14
2019-04-21T08:23:25.377Z,28.15
2019-04-21T08:23:54.830Z,28.60
2019-04-21T08:24:37.221Z,31.01
2019-04-21T08:25:03.255Z,29.80
2019-04-21T08:25:50.845Z,28.78
2019-04-21T08:26:07.939Z,29.00
2019-04-21T08:26:45.154Z,27.59
2019-04-21T08:27:18.948Z,28.50
2019-04-21T08:28:25.917Z,27.87
2019-04-21T08:29:01.075Z,28.73
2019-04-21T08:29:33.381Z,29.11
2019-04-21T08:30:01.484Z,27.73
2019-04-21T08:30:47.524Z,28.73
2019-04-21T08:31:09.831Z,27.94
2019-04-21T08:31:50.681Z,27.93
2019-04-21T08:32:18.098Z,28.18
2019-04-21T08:33:24.681Z,26.84
2019-04-21T08:33:56.476Z,27.25
2019-04-21T08:34:28.397Z,26.83
2019-04-21T08:36:11.017Z,26.40
2019-04-21T08:36:19.072Z,27.77
2019-04-21T08:36:33.957Z,27.14
2019-04-21T08:37:12.270Z,28.24
2019-04-21T08:37:43.184Z,26.88
2019-04-21T08:38:20.045Z,26.31
2019-04-21T08:38:54.066Z,25.50
2019-04-21T08:39:33.156Z,25.46
2019-04-21T08:40:12.281Z,25.85
2019-04-21T08:41:08.661Z,24.09
2019-04-21T08:41:39.454Z,23.18
2019-04-21T08:42:15.534Z,23.48
2019-04-21T08:42:44.800Z,23.11
2019-04-21T08:43:27.538Z,22.56
2019-04-21T08:43:53.207Z,23.12
2019-04-21T08:44:26.178Z,23.23
2019-04-21T08:44:54.117Z,24.24
2019-04-21T08:45:35.365Z,24.00
2019-04-21T08:46:06.722Z,24.78
2019-04-21T08:46:44.686Z,23.14
2019-04-21T08:47:14.141Z,22.63
2019-04-21T08:47:47.692Z,22.93
2019-04-21T08:48:18.136Z,23.22
2019-04-21T08:48:58.970Z,23.52
2019-04-21T08:49:22.307Z,23.83
2019-04-21T08:50:03.506Z,23.92
2019-04-21T08:50:30.920Z,24.08
2019-04-21T08:51:22.506Z,24.25
2019-04-21T08:51:50.455Z,25.11
2019-04-21T08:52:29.495Z,24.38
2019-04-21T08:53:24.783Z,24.01
2019-04-21T08:54:15.266Z,23.92
2019-04-21T08:54:26.474Z,23.55
2019-04-21T08:55:05.608Z,21.50
2019-04-21T08:55:39.745Z,21.68
2019-04-21T08:56:10.035Z,23.83
2019-04-21T08:56:43.532Z,24.73
2019-04-21T08:57:19.674Z,22.61
2019-04-21T08:57:58.318Z,21.50
2019-04-21T08:58:57.534Z,23.38
2019-04-21T08:59:30.941Z,22.84
2019-04-21T09:00:08.800Z,22.53
2019-04-21T09:01:08.851Z,21.94
2019-04-21T09:01:43.160Z,22.04
2019-04-21T09:02:18.165Z,21.83
2019-04-21T09:02:47.579Z,21.59
2019-04-21T09:03:21.324Z,22.39
2019-04-21T09:03:56.637Z,22.57
2019-04-21T09:04:26.174Z,22.21
2019-04-21T09:05:01.475Z,22.72
2019-04-21T09:05:34.312Z,23.20
2019-04-21T09:06:09.275Z,25.07
2019-04-21T09:06:54.182Z,22.60
2019-04-21T09:07:12.810Z,23.58
2019-04-21T09:07:49.564Z,23.82
2019-04-21T09:08:20.244Z,22.39
2019-04-21T09:08:58.307Z,22.00
2019-04-21T09:09:29.110Z,22.14
2019-04-21T09:10:16.820Z,21.96
2019-04-21T09:10:35.449Z,22.29
2019-04-21T09:11:09.774Z,22.30
2019-04-21T09:11:42.102Z,22.18
2019-04-21T09:12:10.934Z,22.63
2019-04-21T09:13:17.217Z,24.38
2019-04-21T09:13:55.855Z,22.73
2019-04-21T09:14:27.328Z,23.00
2019-04-21T09:15:03.098Z,23.34
2019-04-21T09:15:31.124Z,23.04
2019-04-21T09:16:05.125Z,22.56
2019-04-21T09:16:39.677Z,22.26
2019-04-21T09:17:08.060Z,22.51
2019-04-21T09:17:41.199Z,24.17
2019-04-21T09:18:18.554Z,21.58
2019-04-21T09:18:47.323Z,21.55
2019-04-21T09:19:42.422Z,22.57
2019-04-21T09:20:07.999Z,22.10
2019-04-21T09:20:40.161Z,21.94
2019-04-21T09:21:46.920Z,21.96
2019-04-21T09:22:13.207Z,21.85
2019-04-21T09:23:24.203Z,22.19
2019-04-21T09:23:56.032Z,21.15
2019-04-21T09:24:29.446Z,21.05
2019-04-21T09:25:01.460Z,21.87
2019-04-21T09:25:42.471Z,20.99
2019-04-21T09:26:05.107Z,20.89
2019-04-21T09:26:43.170Z,21.10
2019-04-21T09:27:15.383Z,20.65
2019-04-21T09:27:47.020Z,20.54
2019-04-21T09:28:22.678Z,20.66
2019-04-21T09:28:49.415Z,20.67
2019-04-21T09:29:21.703Z,21.17
2019-04-21T09:29:46.732Z,21.17
2019-04-21T09:30:15.510Z,23.04
2019-04-21T09:30:53.510Z,22.41
2019-04-21T09:31:26.021Z,21.55
2019-04-21T09:31:55.528Z,21.20
2019-04-21T09:33:00.516Z,21.62
2019-04-21T09:33:39.058Z,20.84
2019-04-21T09:34:08.372Z,20.72
2019-04-21T09:34:43.767Z,22.43
2019-04-21T09:35:16.925Z,20.40
2019-04-21T09:35:55.468Z,21.36
2019-04-21T09:36:25.086Z,20.68
2019-04-21T09:37:10.470Z,18.75
2019-04-21T09:37:39.715Z,18.60
2019-04-21T09:38:12.670Z,19.77
2019-04-21T09:38:38.481Z,19.97
2019-04-21T09:39:12.974Z,18.91
2019-04-21T09:39:43.937Z,17.59
2019-04-21T09:40:14.980Z,17.34
2019-04-21T09:40:49.051Z,17.78
2019-04-21T09:41:22.431Z,18.62
2019-04-21T09:41:54.418Z,17.99
2019-04-21T09:43:03.179Z,17.92
2019-04-21T09:43:40.264Z,18.62
2019-04-21T09:44:08.746Z,18.13
2019-04-21T09:44:43.597Z,18.06
2019-04-21T09:45:12.598Z,17.97
2019-04-21T09:45:45.373Z,18.24
2019-04-21T09:46:16.605Z,17.81
2019-04-21T09:46:54.028Z,17.70
2019-04-21T09:47:24.513Z,17.61
2019-04-21T09:48:00.796Z,17.41
2019-04-21T09:48:28.105Z,17.52
2019-04-21T09:49:05.375Z,17.60
2019-04-21T09:49:33.950Z,18.41
2019-04-21T09:50:06.634Z,16.71
2019-04-21T09:50:39.577Z,16.97